Ahtanum, WA

5:36 AM PDT on August 28, 2014 (GMT -0700)
Pangborn Memorial | Change Station
CLOSE
Current Station
Airport
Location: Wenatchee,
Elevation: 1247 ft
Nearby Weather Stations

Elev 1247 ft 47.40 °N, 120.21 °W | Updated 41 minutes ago

Clear
Clear
73 °F
Feels Like 73 °F
N
9
Wind Variable Wind from West

Today
High -- | Low -- °F
--% Chance of Precip.
Yesterday
High -- | Low -- °F
Precip. -- in
6:17 AM 7:48 PM
Waxing Crescent, 8% visible
Pressure 29.91 in
Visibility 10.0 miles
Clouds Clear
Dew Point 48 °F
Humidity 41%
Rainfall 0.00 in
Snow Depth Not available.
UV 0 out of 12
Pollen 4.90 out of 12
Air Quality Not available.
Flu Activity Not available.
METAR KEAT 281155Z AUTO 28008KT 10SM CLR 23/09 A2994 RMK AO2 SLP127 T02280089 10261 20228 53007

More Conditions Fewer Conditions

Pressure 29.91 in
Visibility 10.0 miles
Clouds Clear
Dew Point 48 °F
Humidity 41%
Rainfall 0.00 in
Snow Depth Not available.
UV 0 out of 12
Pollen 4.90 out of 12
Air Quality Not available.
Flu Activity Not available.
METAR KEAT 281155Z AUTO 28008KT 10SM CLR 23/09 A2994 RMK AO2 SLP127 T02280089 10261 20228 53007

More Conditions Fewer Conditions

10-Day Weather Forecast

Almanac

Astronomy

Aug. 28, 2014 Rise Set
Actual Time 6:17 AM PDT 7:48 PM PDT
Civil Twilight 5:45 AM PDT 8:20 PM PDT
Nautical Twilight 5:06 AM PDT 8:58 PM PDT
Astronomical Twilight 4:25 AM PDT 9:39 PM PDT
Moon 9:27 AM PDT 9:00 PM PDT
Length of Visible Light 14h 34m
Length of Day
13h 31m
Tomorrow will be 3m 9s shorter.
Waxing Crescent, 8% of the Moon is Illuminated
Today
Waxing Crescent
Sep 2
First Quarter
Sep 8
Full
Sep 15
Last Quarter
Sep 24
New

Today's Extremes

State Highs State Lows

Community

WunderPhotos

Upload Photos

1,747,943 photos uploaded!

Nearby

Snow Depth

Station Depth Elevation
Lost Horse 0 in 5000 ft
White Pass E.S. 0 in 4500 ft
Pigtail Peak 0 in 5900 ft
Trough 0 in 5300 ft
Grouse Camp 0 in 5380 ft

Earthquake Activity

City Distance Mag. Time & Date
No recent earthquake activity has been reported nearby.
Minimum magnitude displayed is 2.5.

Coastal Water Temperatures

Place Temperature
No Stations Reporting

Nearby Weather Stations